sensor_id;sensor_type;location;lat;lon;timestamp;temperature;humidity
17200;DHT22;8716;52.268;20.968;2022-09-25T00:01:29;9.60;99.90
17200;DHT22;8716;52.268;20.968;2022-09-25T00:03:58;9.60;99.90
17200;DHT22;8716;52.268;20.968;2022-09-25T00:06:28;9.60;99.90
17200;DHT22;8716;52.268;20.968;2022-09-25T00:08:59;9.50;99.90
17200;DHT22;8716;52.268;20.968;2022-09-25T00:11:31;9.50;99.90
17200;DHT22;8716;52.268;20.968;2022-09-25T00:14:01;9.50;99.90
17200;DHT22;8716;52.268;20.968;2022-09-25T00:16:30;9.50;99.90
17200;DHT22;8716;52.268;20.968;2022-09-25T00:18:59;9.40;99.90
17200;DHT22;8716;52.268;20.968;2022-09-25T00:21:45;9.40;99.90
17200;DHT22;8716;52.268;20.968;2022-09-25T00:24:19;9.40;99.90
17200;DHT22;8716;52.268;20.968;2022-09-25T00:26:49;9.40;99.90
17200;DHT22;8716;52.268;20.968;2022-09-25T00:29:18;9.30;99.90
17200;DHT22;8716;52.268;20.968;2022-09-25T00:31:47;9.30;99.90
17200;DHT22;8716;52.268;20.968;2022-09-25T00:34:15;9.30;99.90
17200;DHT22;8716;52.268;20.968;2022-09-25T00:36:51;9.30;99.90
17200;DHT22;8716;52.268;20.968;2022-09-25T00:39:19;9.20;99.90
17200;DHT22;8716;52.268;20.968;2022-09-25T00:41:51;9.20;99.90
17200;DHT22;8716;52.268;20.968;2022-09-25T00:44:43;9.20;99.90
17200;DHT22;8716;52.268;20.968;2022-09-25T00:47:16;9.20;99.90
17200;DHT22;8716;52.268;20.968;2022-09-25T00:49:46;9.20;99.90
17200;DHT22;8716;52.268;20.968;2022-09-25T00:52:14;9.20;99.90
17200;DHT22;8716;52.268;20.968;2022-09-25T00:54:45;9.10;99.90
17200;DHT22;8716;52.268;20.968;2022-09-25T00:57:17;9.10;99.90
17200;DHT22;8716;52.268;20.968;2022-09-25T00:59:49;9.10;99.90
17200;DHT22;8716;52.268;20.968;2022-09-25T01:02:24;9.10;99.90
17200;DHT22;8716;52.268;20.968;2022-09-25T01:04:56;9.10;99.90
17200;DHT22;8716;52.268;20.968;2022-09-25T01:07:25;9.10;99.90
17200;DHT22;8716;52.268;20.968;2022-09-25T01:09:55;9.00;99.90
17200;DHT22;8716;52.268;20.968;2022-09-25T01:12:26;9.00;99.90
17200;DHT22;8716;52.268;20.968;2022-09-25T01:14:54;9.00;99.90
17200;DHT22;8716;52.268;20.968;2022-09-25T01:17:28;9.00;99.90
17200;DHT22;8716;52.268;20.968;2022-09-25T01:20:06;9.00;99.90
17200;DHT22;8716;52.268;20.968;2022-09-25T01:22:45;9.00;99.90
17200;DHT22;8716;52.268;20.968;2022-09-25T01:25:27;9.00;99.90
17200;DHT22;8716;52.268;20.968;2022-09-25T01:28:13;8.90;99.90
17200;DHT22;8716;52.268;20.968;2022-09-25T01:30:48;8.90;99.90
17200;DHT22;8716;52.268;20.968;2022-09-25T01:33:23;8.90;99.90
17200;DHT22;8716;52.268;20.968;2022-09-25T01:35:59;8.80;99.90
17200;DHT22;8716;52.268;20.968;2022-09-25T01:38:33;8.80;99.90
17200;DHT22;8716;52.268;20.968;2022-09-25T01:41:07;8.80;99.90
17200;DHT22;8716;52.268;20.968;2022-09-25T01:43:39;8.80;99.90
17200;DHT22;8716;52.268;20.968;2022-09-25T01:46:14;8.90;99.90
17200;DHT22;8716;52.268;20.968;2022-09-25T01:48:45;8.90;99.90
17200;DHT22;8716;52.268;20.968;2022-09-25T01:51:18;9.00;99.90
17200;DHT22;8716;52.268;20.968;2022-09-25T01:53:51;9.00;99.90
17200;DHT22;8716;52.268;20.968;2022-09-25T01:56:25;9.00;99.90
17200;DHT22;8716;52.268;20.968;2022-09-25T01:59:02;9.00;99.90
17200;DHT22;8716;52.268;20.968;2022-09-25T02:01:38;8.90;99.90
17200;DHT22;8716;52.268;20.968;2022-09-25T02:04:10;8.90;99.90
17200;DHT22;8716;52.268;20.968;2022-09-25T02:06:43;8.80;99.90
17200;DHT22;8716;52.268;20.968;2022-09-25T02:09:16;8.80;99.90
17200;DHT22;8716;52.268;20.968;2022-09-25T02:11:48;8.70;99.90
17200;DHT22;8716;52.268;20.968;2022-09-25T02:14:22;8.70;99.90
17200;DHT22;8716;52.268;20.968;2022-09-25T02:16:54;8.70;99.90
17200;DHT22;8716;52.268;20.968;2022-09-25T02:19:23;8.70;99.90
17200;DHT22;8716;52.268;20.968;2022-09-25T02:22:14;8.70;99.90
17200;DHT22;8716;52.268;20.968;2022-09-25T02:24:48;8.70;99.90
17200;DHT22;8716;52.268;20.968;2022-09-25T02:27:23;8.60;99.90
17200;DHT22;8716;52.268;20.968;2022-09-25T02:29:54;8.60;99.90
17200;DHT22;8716;52.268;20.968;2022-09-25T02:32:28;8.70;99.90
17200;DHT22;8716;52.268;20.968;2022-09-25T02:34:57;8.70;99.90
17200;DHT22;8716;52.268;20.968;2022-09-25T02:37:26;8.70;99.90
17200;DHT22;8716;52.268;20.968;2022-09-25T02:39:57;8.70;99.90
17200;DHT22;8716;52.268;20.968;2022-09-25T02:42:39;8.70;99.90
17200;DHT22;8716;52.268;20.968;2022-09-25T02:45:20;8.70;99.90
17200;DHT22;8716;52.268;20.968;2022-09-25T02:48:00;8.70;99.90
17200;DHT22;8716;52.268;20.968;2022-09-25T02:50:36;8.60;99.90
17200;DHT22;8716;52.268;20.968;2022-09-25T02:53:10;8.60;99.90
17200;DHT22;8716;52.268;20.968;2022-09-25T02:55:46;8.60;99.90
17200;DHT22;8716;52.268;20.968;2022-09-25T02:58:18;8.60;99.90
17200;DHT22;8716;52.268;20.968;2022-09-25T03:00:49;8.50;99.90
17200;DHT22;8716;52.268;20.968;2022-09-25T03:03:22;8.50;99.90
17200;DHT22;8716;52.268;20.968;2022-09-25T03:05:53;8.40;99.90
17200;DHT22;8716;52.268;20.968;2022-09-25T03:08:23;8.40;99.90
17200;DHT22;8716;52.268;20.968;2022-09-25T03:11:09;8.40;99.90
17200;DHT22;8716;52.268;20.968;2022-09-25T03:13:39;8.40;99.90
17200;DHT22;8716;52.268;20.968;2022-09-25T03:16:11;8.40;99.90
17200;DHT22;8716;52.268;20.968;2022-09-25T03:18:42;8.40;99.90
17200;DHT22;8716;52.268;20.968;2022-09-25T03:21:10;8.40;99.90
17200;DHT22;8716;52.268;20.968;2022-09-25T03:23:38;8.30;99.90
17200;DHT22;8716;52.268;20.968;2022-09-25T03:26:06;8.30;99.90
17200;DHT22;8716;52.268;20.968;2022-09-25T03:28:34;8.30;99.90
17200;DHT22;8716;52.268;20.968;2022-09-25T03:31:05;8.30;99.90
17200;DHT22;8716;52.268;20.968;2022-09-25T03:33:36;8.30;99.90
17200;DHT22;8716;52.268;20.968;2022-09-25T03:36:08;8.20;99.90
17200;DHT22;8716;52.268;20.968;2022-09-25T03:38:37;8.30;99.90
17200;DHT22;8716;52.268;20.968;2022-09-25T03:41:08;8.20;99.90
17200;DHT22;8716;52.268;20.968;2022-09-25T03:43:37;8.20;99.90
17200;DHT22;8716;52.268;20.968;2022-09-25T03:46:07;8.20;99.90
17200;DHT22;8716;52.268;20.968;2022-09-25T03:48:37;8.10;99.90
17200;DHT22;8716;52.268;20.968;2022-09-25T03:51:07;8.10;99.90
17200;DHT22;8716;52.268;20.968;2022-09-25T03:53:36;8.10;99.90
17200;DHT22;8716;52.268;20.968;2022-09-25T03:56:06;8.10;99.90
17200;DHT22;8716;52.268;20.968;2022-09-25T03:58:35;8.10;99.90
17200;DHT22;8716;52.268;20.968;2022-09-25T04:01:03;8.00;99.90
17200;DHT22;8716;52.268;20.968;2022-09-25T04:03:32;8.00;99.90
17200;DHT22;8716;52.268;20.968;2022-09-25T04:06:02;8.00;99.90
17200;DHT22;8716;52.268;20.968;2022-09-25T04:08:35;7.90;99.90
17200;DHT22;8716;52.268;20.968;2022-09-25T04:11:04;8.00;99.90
17200;DHT22;8716;52.268;20.968;2022-09-25T04:13:34;7.90;99.90
17200;DHT22;8716;52.268;20.968;2022-09-25T04:16:04;7.90;99.90
17200;DHT22;8716;52.268;20.968;2022-09-25T04:18:34;7.80;99.90
17200;DHT22;8716;52.268;20.968;2022-09-25T04:21:04;7.80;99.90
17200;DHT22;8716;52.268;20.968;2022-09-25T04:23:34;7.80;99.90
17200;DHT22;8716;52.268;20.968;2022-09-25T04:26:03;7.80;99.90
17200;DHT22;8716;52.268;20.968;2022-09-25T04:28:31;7.80;99.90
17200;DHT22;8716;52.268;20.968;2022-09-25T04:31:02;7.80;99.90
17200;DHT22;8716;52.268;20.968;2022-09-25T04:33:31;7.80;99.90
17200;DHT22;8716;52.268;20.968;2022-09-25T04:36:15;7.80;99.90
17200;DHT22;8716;52.268;20.968;2022-09-25T04:38:46;7.80;99.90
17200;DHT22;8716;52.268;20.968;2022-09-25T04:41:15;7.80;99.90
17200;DHT22;8716;52.268;20.968;2022-09-25T04:43:45;7.80;99.90
17200;DHT22;8716;52.268;20.968;2022-09-25T04:46:14;7.90;99.90
17200;DHT22;8716;52.268;20.968;2022-09-25T04:48:48;7.90;99.90
17200;DHT22;8716;52.268;20.968;2022-09-25T04:51:17;7.90;99.90
17200;DHT22;8716;52.268;20.968;2022-09-25T04:53:48;7.90;99.90
17200;DHT22;8716;52.268;20.968;2022-09-25T04:56:17;7.90;99.90
17200;DHT22;8716;52.268;20.968;2022-09-25T04:58:46;8.00;99.90
17200;DHT22;8716;52.268;20.968;2022-09-25T05:01:17;8.00;99.90
17200;DHT22;8716;52.268;20.968;2022-09-25T05:03:46;8.00;99.90
17200;DHT22;8716;52.268;20.968;2022-09-25T05:06:15;8.10;99.90
17200;DHT22;8716;52.268;20.968;2022-09-25T05:08:43;8.10;99.90
17200;DHT22;8716;52.268;20.968;2022-09-25T05:11:14;8.10;99.90
17200;DHT22;8716;52.268;20.968;2022-09-25T05:13:49;8.20;99.90
17200;DHT22;8716;52.268;20.968;2022-09-25T05:16:17;8.30;99.90
17200;DHT22;8716;52.268;20.968;2022-09-25T05:18:46;8.30;99.90
17200;DHT22;8716;52.268;20.968;2022-09-25T05:21:14;8.40;99.90
17200;DHT22;8716;52.268;20.968;2022-09-25T05:23:42;8.50;99.90
17200;DHT22;8716;52.268;20.968;2022-09-25T05:26:10;8.60;99.90
17200;DHT22;8716;52.268;20.968;2022-09-25T05:28:40;8.70;99.90
17200;DHT22;8716;52.268;20.968;2022-09-25T05:31:08;8.80;99.90
17200;DHT22;8716;52.268;20.968;2022-09-25T05:33:37;8.90;99.90
17200;DHT22;8716;52.268;20.968;2022-09-25T05:36:06;9.00;99.90
17200;DHT22;8716;52.268;20.968;2022-09-25T05:38:36;9.10;99.90
17200;DHT22;8716;52.268;20.968;2022-09-25T05:41:05;9.10;99.90
17200;DHT22;8716;52.268;20.968;2022-09-25T05:43:38;9.20;99.90
17200;DHT22;8716;52.268;20.968;2022-09-25T05:46:09;9.30;99.90
17200;DHT22;8716;52.268;20.968;2022-09-25T05:48:38;9.40;99.90
17200;DHT22;8716;52.268;20.968;2022-09-25T05:51:06;9.40;99.90
17200;DHT22;8716;52.268;20.968;2022-09-25T05:53:34;9.50;99.90
17200;DHT22;8716;52.268;20.968;2022-09-25T05:56:04;9.50;99.90
17200;DHT22;8716;52.268;20.968;2022-09-25T05:58:33;9.60;99.90
17200;DHT22;8716;52.268;20.968;2022-09-25T06:01:03;9.60;99.90
17200;DHT22;8716;52.268;20.968;2022-09-25T06:03:35;9.70;99.90
17200;DHT22;8716;52.268;20.968;2022-09-25T06:06:04;9.70;99.90
17200;DHT22;8716;52.268;20.968;2022-09-25T06:08:32;9.80;99.90
17200;DHT22;8716;52.268;20.968;2022-09-25T06:11:02;9.90;99.90
17200;DHT22;8716;52.268;20.968;2022-09-25T06:13:31;10.00;99.90
17200;DHT22;8716;52.268;20.968;2022-09-25T06:16:01;10.10;99.90
17200;DHT22;8716;52.268;20.968;2022-09-25T06:18:30;10.20;99.90
17200;DHT22;8716;52.268;20.968;2022-09-25T06:21:01;10.30;99.90
17200;DHT22;8716;52.268;20.968;2022-09-25T06:23:30;10.40;99.90
17200;DHT22;8716;52.268;20.968;2022-09-25T06:26:02;10.50;99.90
17200;DHT22;8716;52.268;20.968;2022-09-25T06:28:30;10.50;99.90
17200;DHT22;8716;52.268;20.968;2022-09-25T06:30:59;10.60;99.90
17200;DHT22;8716;52.268;20.968;2022-09-25T06:33:28;10.70;99.90
17200;DHT22;8716;52.268;20.968;2022-09-25T06:35:57;10.80;99.90
17200;DHT22;8716;52.268;20.968;2022-09-25T06:38:30;10.90;99.90
17200;DHT22;8716;52.268;20.968;2022-09-25T06:41:03;11.00;99.90
17200;DHT22;8716;52.268;20.968;2022-09-25T06:43:32;11.20;99.90
17200;DHT22;8716;52.268;20.968;2022-09-25T06:46:01;11.30;99.90
17200;DHT22;8716;52.268;20.968;2022-09-25T06:48:30;11.40;99.90
17200;DHT22;8716;52.268;20.968;2022-09-25T06:51:00;11.50;99.90
17200;DHT22;8716;52.268;20.968;2022-09-25T06:53:29;11.70;99.90
17200;DHT22;8716;52.268;20.968;2022-09-25T06:55:58;11.80;99.90
17200;DHT22;8716;52.268;20.968;2022-09-25T06:58:27;11.90;99.90
17200;DHT22;8716;52.268;20.968;2022-09-25T07:00:56;12.10;99.90
17200;DHT22;8716;52.268;20.968;2022-09-25T07:03:24;12.20;99.90
17200;DHT22;8716;52.268;20.968;2022-09-25T07:06:12;12.20;99.90
17200;DHT22;8716;52.268;20.968;2022-09-25T07:08:43;12.30;99.90
17200;DHT22;8716;52.268;20.968;2022-09-25T07:11:13;12.40;99.90
17200;DHT22;8716;52.268;20.968;2022-09-25T07:13:43;12.50;99.90
17200;DHT22;8716;52.268;20.968;2022-09-25T07:16:13;12.60;99.90
17200;DHT22;8716;52.268;20.968;2022-09-25T07:18:42;12.70;99.90
17200;DHT22;8716;52.268;20.968;2022-09-25T07:21:12;12.70;99.90
17200;DHT22;8716;52.268;20.968;2022-09-25T07:23:41;12.70;99.90
17200;DHT22;8716;52.268;20.968;2022-09-25T07:26:12;12.80;99.90
17200;DHT22;8716;52.268;20.968;2022-09-25T07:28:41;12.80;99.90
17200;DHT22;8716;52.268;20.968;2022-09-25T07:31:15;13.00;99.90
17200;DHT22;8716;52.268;20.968;2022-09-25T07:33:43;13.00;99.90
17200;DHT22;8716;52.268;20.968;2022-09-25T07:36:12;13.10;99.90
17200;DHT22;8716;52.268;20.968;2022-09-25T07:38:42;13.10;99.90
17200;DHT22;8716;52.268;20.968;2022-09-25T07:41:12;13.10;99.90
17200;DHT22;8716;52.268;20.968;2022-09-25T07:43:40;13.20;99.90
17200;DHT22;8716;52.268;20.968;2022-09-25T07:46:09;13.30;99.90
17200;DHT22;8716;52.268;20.968;2022-09-25T07:48:37;13.40;99.90
17200;DHT22;8716;52.268;20.968;2022-09-25T07:51:09;13.40;99.90
17200;DHT22;8716;52.268;20.968;2022-09-25T07:53:37;13.50;99.90
17200;DHT22;8716;52.268;20.968;2022-09-25T07:56:08;13.60;99.90
17200;DHT22;8716;52.268;20.968;2022-09-25T07:58:40;13.60;99.90
17200;DHT22;8716;52.268;20.968;2022-09-25T08:01:11;13.70;99.90
17200;DHT22;8716;52.268;20.968;2022-09-25T08:03:40;13.80;99.90
17200;DHT22;8716;52.268;20.968;2022-09-25T08:06:09;13.90;99.90
17200;DHT22;8716;52.268;20.968;2022-09-25T08:08:39;14.10;99.90
17200;DHT22;8716;52.268;20.968;2022-09-25T08:11:11;14.20;99.90
17200;DHT22;8716;52.268;20.968;2022-09-25T08:13:40;14.30;99.90
17200;DHT22;8716;52.268;20.968;2022-09-25T08:16:09;14.40;99.90
17200;DHT22;8716;52.268;20.968;2022-09-25T08:18:39;14.50;99.90
17200;DHT22;8716;52.268;20.968;2022-09-25T08:21:08;14.70;99.90
17200;DHT22;8716;52.268;20.968;2022-09-25T08:23:40;14.80;99.90
17200;DHT22;8716;52.268;20.968;2022-09-25T08:26:17;15.50;99.90
17200;DHT22;8716;52.268;20.968;2022-09-25T08:28:46;16.90;99.90
17200;DHT22;8716;52.268;20.968;2022-09-25T08:31:14;18.60;99.90
17200;DHT22;8716;52.268;20.968;2022-09-25T08:33:45;20.30;99.90
17200;DHT22;8716;52.268;20.968;2022-09-25T08:36:14;21.90;99.90
17200;DHT22;8716;52.268;20.968;2022-09-25T08:38:43;23.10;99.90
17200;DHT22;8716;52.268;20.968;2022-09-25T08:41:15;24.00;99.90
17200;DHT22;8716;52.268;20.968;2022-09-25T08:43:54;24.80;97.80
17200;DHT22;8716;52.268;20.968;2022-09-25T08:46:30;25.60;94.40
17200;DHT22;8716;52.268;20.968;2022-09-25T08:49:23;26.40;91.20
17200;DHT22;8716;52.268;20.968;2022-09-25T08:51:56;26.50;86.40
17200;DHT22;8716;52.268;20.968;2022-09-25T08:54:27;26.70;85.30
17200;DHT22;8716;52.268;20.968;2022-09-25T08:56:59;26.60;85.30
17200;DHT22;8716;52.268;20.968;2022-09-25T08:59:33;26.30;83.60
17200;DHT22;8716;52.268;20.968;2022-09-25T09:02:12;26.10;84.40
17200;DHT22;8716;52.268;20.968;2022-09-25T09:04:46;26.00;83.60
17200;DHT22;8716;52.268;20.968;2022-09-25T09:07:20;25.70;83.80
17200;DHT22;8716;52.268;20.968;2022-09-25T09:09:56;25.60;85.10
17200;DHT22;8716;52.268;20.968;2022-09-25T09:12:33;25.90;85.20
17200;DHT22;8716;52.268;20.968;2022-09-25T09:15:24;26.00;84.10
17200;DHT22;8716;52.268;20.968;2022-09-25T09:17:55;26.00;81.60
17200;DHT22;8716;52.268;20.968;2022-09-25T09:20:30;26.00;83.00
17200;DHT22;8716;52.268;20.968;2022-09-25T09:23:01;26.30;83.10
17200;DHT22;8716;52.268;20.968;2022-09-25T09:25:44;26.70;81.50
17200;DHT22;8716;52.268;20.968;2022-09-25T09:28:33;27.00;81.10
17200;DHT22;8716;52.268;20.968;2022-09-25T09:31:12;26.90;78.10
17200;DHT22;8716;52.268;20.968;2022-09-25T09:33:49;27.10;78.80
17200;DHT22;8716;52.268;20.968;2022-09-25T09:36:26;27.40;78.20
17200;DHT22;8716;52.268;20.968;2022-09-25T09:39:00;27.50;77.20
17200;DHT22;8716;52.268;20.968;2022-09-25T09:41:45;27.60;77.50
17200;DHT22;8716;52.268;20.968;2022-09-25T09:44:28;27.60;75.70
17200;DHT22;8716;52.268;20.968;2022-09-25T09:47:05;27.70;75.80
17200;DHT22;8716;52.268;20.968;2022-09-25T09:49:38;27.80;74.80
17200;DHT22;8716;52.268;20.968;2022-09-25T09:52:11;27.80;74.50
17200;DHT22;8716;52.268;20.968;2022-09-25T09:54:46;27.90;74.70
17200;DHT22;8716;52.268;20.968;2022-09-25T09:57:19;28.00;73.20
17200;DHT22;8716;52.268;20.968;2022-09-25T09:59:52;27.90;72.50
17200;DHT22;8716;52.268;20.968;2022-09-25T10:02:40;27.80;73.50
17200;DHT22;8716;52.268;20.968;2022-09-25T10:05:22;27.60;73.80
17200;DHT22;8716;52.268;20.968;2022-09-25T10:07:52;27.50;74.10
17200;DHT22;8716;52.268;20.968;2022-09-25T10:10:26;27.20;74.80
17200;DHT22;8716;52.268;20.968;2022-09-25T10:12:55;27.10;74.90
17200;DHT22;8716;52.268;20.968;2022-09-25T10:15:34;27.00;75.20
17200;DHT22;8716;52.268;20.968;2022-09-25T10:18:08;26.90;76.40
17200;DHT22;8716;52.268;20.968;2022-09-25T10:20:41;27.00;75.00
17200;DHT22;8716;52.268;20.968;2022-09-25T10:23:26;27.00;75.00
17200;DHT22;8716;52.268;20.968;2022-09-25T10:25:57;27.10;74.30
17200;DHT22;8716;52.268;20.968;2022-09-25T10:28:28;27.20;72.30
17200;DHT22;8716;52.268;20.968;2022-09-25T10:30:57;27.20;72.70
17200;DHT22;8716;52.268;20.968;2022-09-25T10:33:29;27.20;72.60
17200;DHT22;8716;52.268;20.968;2022-09-25T10:35:58;27.20;72.50
17200;DHT22;8716;52.268;20.968;2022-09-25T10:38:33;27.00;71.50
17200;DHT22;8716;52.268;20.968;2022-09-25T10:41:06;27.00;71.50
17200;DHT22;8716;52.268;20.968;2022-09-25T10:43:49;26.90;71.10
17200;DHT22;8716;52.268;20.968;2022-09-25T10:46:25;26.60;72.70
17200;DHT22;8716;52.268;20.968;2022-09-25T10:49:18;26.50;71.60
17200;DHT22;8716;52.268;20.968;2022-09-25T10:52:07;26.30;71.10
17200;DHT22;8716;52.268;20.968;2022-09-25T10:54:39;26.30;71.10
17200;DHT22;8716;52.268;20.968;2022-09-25T10:57:19;26.40;70.30
17200;DHT22;8716;52.268;20.968;2022-09-25T10:59:51;26.40;71.00
17200;DHT22;8716;52.268;20.968;2022-09-25T11:02:30;26.40;70.70
17200;DHT22;8716;52.268;20.968;2022-09-25T11:05:04;26.30;70.20
17200;DHT22;8716;52.268;20.968;2022-09-25T11:07:33;26.10;68.80
17200;DHT22;8716;52.268;20.968;2022-09-25T11:10:01;25.80;69.30
17200;DHT22;8716;52.268;20.968;2022-09-25T11:12:31;25.70;70.00
17200;DHT22;8716;52.268;20.968;2022-09-25T11:15:02;25.60;71.20
17200;DHT22;8716;52.268;20.968;2022-09-25T11:17:32;25.60;71.50
17200;DHT22;8716;52.268;20.968;2022-09-25T11:20:20;25.60;70.70
17200;DHT22;8716;52.268;20.968;2022-09-25T11:22:59;25.50;70.70
17200;DHT22;8716;52.268;20.968;2022-09-25T11:25:34;25.50;69.30
17200;DHT22;8716;52.268;20.968;2022-09-25T11:28:10;25.40;70.40
17200;DHT22;8716;52.268;20.968;2022-09-25T11:30:43;25.50;68.50
17200;DHT22;8716;52.268;20.968;2022-09-25T11:33:22;25.40;68.80
17200;DHT22;8716;52.268;20.968;2022-09-25T11:35:57;25.20;70.10
17200;DHT22;8716;52.268;20.968;2022-09-25T11:38:32;25.10;69.90
17200;DHT22;8716;52.268;20.968;2022-09-25T11:41:26;25.00;70.80
17200;DHT22;8716;52.268;20.968;2022-09-25T11:44:11;25.00;71.60
17200;DHT22;8716;52.268;20.968;2022-09-25T11:46:49;25.00;71.10
17200;DHT22;8716;52.268;20.968;2022-09-25T11:49:22;24.90;71.30
17200;DHT22;8716;52.268;20.968;2022-09-25T11:52:19;24.80;71.60
17200;DHT22;8716;52.268;20.968;2022-09-25T11:55:12;24.80;71.40
17200;DHT22;8716;52.268;20.968;2022-09-25T11:57:52;24.80;71.60
17200;DHT22;8716;52.268;20.968;2022-09-25T12:00:25;24.70;71.70
17200;DHT22;8716;52.268;20.968;2022-09-25T12:03:15;24.70;71.10
17200;DHT22;8716;52.268;20.968;2022-09-25T12:06:01;24.60;71.00
17200;DHT22;8716;52.268;20.968;2022-09-25T12:08:46;24.40;70.80
17200;DHT22;8716;52.268;20.968;2022-09-25T12:11:23;24.20;72.10
17200;DHT22;8716;52.268;20.968;2022-09-25T12:14:00;24.20;73.50
17200;DHT22;8716;52.268;20.968;2022-09-25T12:16:36;24.10;74.00
17200;DHT22;8716;52.268;20.968;2022-09-25T12:19:15;24.00;73.00
17200;DHT22;8716;52.268;20.968;2022-09-25T12:21:50;23.70;73.70
17200;DHT22;8716;52.268;20.968;2022-09-25T12:24:34;23.70;74.20
17200;DHT22;8716;52.268;20.968;2022-09-25T12:27:14;23.60;74.00
17200;DHT22;8716;52.268;20.968;2022-09-25T12:30:05;23.50;75.00
17200;DHT22;8716;52.268;20.968;2022-09-25T12:35:46;23.40;75.90
17200;DHT22;8716;52.268;20.968;2022-09-25T12:38:26;23.30;76.10
17200;DHT22;8716;52.268;20.968;2022-09-25T12:41:03;23.20;76.80
17200;DHT22;8716;52.268;20.968;2022-09-25T12:43:40;23.10;77.40
17200;DHT22;8716;52.268;20.968;2022-09-25T12:46:17;22.90;77.10
17200;DHT22;8716;52.268;20.968;2022-09-25T12:48:50;22.80;77.30
17200;DHT22;8716;52.268;20.968;2022-09-25T12:51:24;22.80;77.90
17200;DHT22;8716;52.268;20.968;2022-09-25T12:53:57;22.80;78.00
17200;DHT22;8716;52.268;20.968;2022-09-25T12:56:32;22.90;78.00
17200;DHT22;8716;52.268;20.968;2022-09-25T12:59:10;23.00;78.00
17200;DHT22;8716;52.268;20.968;2022-09-25T13:01:45;23.00;77.40
17200;DHT22;8716;52.268;20.968;2022-09-25T13:07:21;22.80;78.20
17200;DHT22;8716;52.268;20.968;2022-09-25T13:09:51;22.60;79.20
17200;DHT22;8716;52.268;20.968;2022-09-25T13:12:27;22.50;79.90
17200;DHT22;8716;52.268;20.968;2022-09-25T13:15:02;22.40;79.70
17200;DHT22;8716;52.268;20.968;2022-09-25T13:17:33;22.30;79.90
17200;DHT22;8716;52.268;20.968;2022-09-25T13:20:40;22.30;80.70
17200;DHT22;8716;52.268;20.968;2022-09-25T13:23:13;22.10;79.40
17200;DHT22;8716;52.268;20.968;2022-09-25T13:25:44;21.80;79.60
17200;DHT22;8716;52.268;20.968;2022-09-25T13:28:19;21.60;79.70
17200;DHT22;8716;52.268;20.968;2022-09-25T13:31:07;21.50;80.00
17200;DHT22;8716;52.268;20.968;2022-09-25T13:33:42;21.50;80.60
17200;DHT22;8716;52.268;20.968;2022-09-25T13:36:34;21.50;80.80
17200;DHT22;8716;52.268;20.968;2022-09-25T13:39:13;21.50;81.00
17200;DHT22;8716;52.268;20.968;2022-09-25T13:42:02;21.40;82.00
17200;DHT22;8716;52.268;20.968;2022-09-25T13:45:00;21.20;82.30
17200;DHT22;8716;52.268;20.968;2022-09-25T13:47:55;21.10;82.20
17200;DHT22;8716;52.268;20.968;2022-09-25T13:50:33;21.10;82.60
17200;DHT22;8716;52.268;20.968;2022-09-25T13:53:26;21.20;82.70
17200;DHT22;8716;52.268;20.968;2022-09-25T13:56:21;21.20;82.60
17200;DHT22;8716;52.268;20.968;2022-09-25T14:01:58;21.20;82.90
17200;DHT22;8716;52.268;20.968;2022-09-25T14:04:51;21.10;83.20
17200;DHT22;8716;52.268;20.968;2022-09-25T14:07:22;21.10;83.50
17200;DHT22;8716;52.268;20.968;2022-09-25T14:09:54;21.10;83.50
17200;DHT22;8716;52.268;20.968;2022-09-25T14:12:28;21.00;83.80
17200;DHT22;8716;52.268;20.968;2022-09-25T14:15:01;21.00;84.10
17200;DHT22;8716;52.268;20.968;2022-09-25T14:17:34;20.90;84.40
17200;DHT22;8716;52.268;20.968;2022-09-25T14:20:13;20.80;84.60
17200;DHT22;8716;52.268;20.968;2022-09-25T14:22:52;20.80;85.10
17200;DHT22;8716;52.268;20.968;2022-09-25T14:25:28;20.70;85.70
17200;DHT22;8716;52.268;20.968;2022-09-25T14:27:59;20.70;86.10
17200;DHT22;8716;52.268;20.968;2022-09-25T14:30:28;20.50;86.80
17200;DHT22;8716;52.268;20.968;2022-09-25T14:33:34;20.40;87.20
17200;DHT22;8716;52.268;20.968;2022-09-25T14:36:13;20.20;87.50
17200;DHT22;8716;52.268;20.968;2022-09-25T14:38:57;20.10;87.90
17200;DHT22;8716;52.268;20.968;2022-09-25T14:41:46;20.00;90.00
17200;DHT22;8716;52.268;20.968;2022-09-25T14:44:31;19.80;91.50
17200;DHT22;8716;52.268;20.968;2022-09-25T14:47:03;19.70;91.60
17200;DHT22;8716;52.268;20.968;2022-09-25T14:49:37;19.50;92.10
17200;DHT22;8716;52.268;20.968;2022-09-25T14:52:09;19.50;92.30
17200;DHT22;8716;52.268;20.968;2022-09-25T14:54:41;19.50;91.90
17200;DHT22;8716;52.268;20.968;2022-09-25T14:57:14;19.40;92.80
17200;DHT22;8716;52.268;20.968;2022-09-25T14:59:52;19.40;92.90
17200;DHT22;8716;52.268;20.968;2022-09-25T15:02:25;19.30;92.50
17200;DHT22;8716;52.268;20.968;2022-09-25T15:07:59;19.30;92.00
17200;DHT22;8716;52.268;20.968;2022-09-25T15:10:31;19.30;91.90
17200;DHT22;8716;52.268;20.968;2022-09-25T15:13:07;19.20;92.10
17200;DHT22;8716;52.268;20.968;2022-09-25T15:15:39;19.10;92.30
17200;DHT22;8716;52.268;20.968;2022-09-25T15:18:28;19.10;92.60
17200;DHT22;8716;52.268;20.968;2022-09-25T15:20:56;19.00;92.90
17200;DHT22;8716;52.268;20.968;2022-09-25T15:23:26;19.00;93.70
17200;DHT22;8716;52.268;20.968;2022-09-25T15:26:00;18.90;93.90
17200;DHT22;8716;52.268;20.968;2022-09-25T15:28:31;18.90;94.30
17200;DHT22;8716;52.268;20.968;2022-09-25T15:31:05;18.80;94.70
17200;DHT22;8716;52.268;20.968;2022-09-25T15:33:35;18.70;95.30
17200;DHT22;8716;52.268;20.968;2022-09-25T15:36:14;18.60;95.70
17200;DHT22;8716;52.268;20.968;2022-09-25T15:38:51;18.60;95.30
17200;DHT22;8716;52.268;20.968;2022-09-25T15:41:21;18.50;95.10
17200;DHT22;8716;52.268;20.968;2022-09-25T15:43:50;18.50;96.00
17200;DHT22;8716;52.268;20.968;2022-09-25T15:46:33;18.40;96.40
17200;DHT22;8716;52.268;20.968;2022-09-25T15:49:04;18.30;96.60
17200;DHT22;8716;52.268;20.968;2022-09-25T15:51:34;18.30;97.20
17200;DHT22;8716;52.268;20.968;2022-09-25T15:54:21;18.20;97.80
17200;DHT22;8716;52.268;20.968;2022-09-25T15:56:55;18.10;98.30
17200;DHT22;8716;52.268;20.968;2022-09-25T15:59:34;18.10;98.90
17200;DHT22;8716;52.268;20.968;2022-09-25T16:02:24;17.90;99.30
17200;DHT22;8716;52.268;20.968;2022-09-25T16:05:20;17.80;99.80
17200;DHT22;8716;52.268;20.968;2022-09-25T16:07:51;17.70;99.90
17200;DHT22;8716;52.268;20.968;2022-09-25T16:10:31;17.60;99.90
17200;DHT22;8716;52.268;20.968;2022-09-25T16:13:02;17.60;99.90
17200;DHT22;8716;52.268;20.968;2022-09-25T16:15:44;17.50;99.90
17200;DHT22;8716;52.268;20.968;2022-09-25T16:18:34;17.50;99.90
17200;DHT22;8716;52.268;20.968;2022-09-25T16:21:21;17.40;99.90
17200;DHT22;8716;52.268;20.968;2022-09-25T16:23:54;17.30;99.90
17200;DHT22;8716;52.268;20.968;2022-09-25T16:26:33;17.20;99.90
17200;DHT22;8716;52.268;20.968;2022-09-25T16:29:06;17.20;99.90
17200;DHT22;8716;52.268;20.968;2022-09-25T16:31:36;17.10;99.90
17200;DHT22;8716;52.268;20.968;2022-09-25T16:34:07;17.00;99.90